Arnold, Illinois
Current Conditions -  °F | °C
As of 10:35 PM on Friday 24 Oct 2014 (Local Time) from KIJX Reporting Station
Broken Clouds Broken Clouds  
Wind Chill: 17°   Ceiling: 4300
Heat Index: 17°   Visibility: 10mi
Dew Point: 10°   Wind: 3mph
Humidity: 65%   Direction: 210°SSW
Pressure: 29.98"   Gusts: NA
Location:  39.7413°N, 90.2138°W
Report Text: KIJX 250335Z AUTO 21003KT 10SM BKN043 17/10 A2998 RMK AO2 T01700104
Loading
Personal Weather Stations






























Interactive Weather Map
Tropical Storm Tracking
New forecast layout! Learn more

10-Day Weather Forecast

Advertisements
Track Severe Weather on mobile